sensor_id;sensor_type;location;lat;lon;timestamp;P1;durP1;ratioP1;P2;durP2;ratioP2
47401;SDS011;33155;48.370;-3.750;2022-10-16T06:00:43;0.00;;;0.00;;
47401;SDS011;33155;48.370;-3.750;2022-10-16T06:03:09;0.20;;;0.10;;
47401;SDS011;33155;48.370;-3.750;2022-10-16T06:05:34;0.20;;;0.20;;
47401;SDS011;33155;48.370;-3.750;2022-10-16T06:08:00;0.10;;;0.10;;
47401;SDS011;33155;48.370;-3.750;2022-10-16T06:10:25;0.17;;;0.10;;
47401;SDS011;33155;48.370;-3.750;2022-10-16T06:12:51;0.43;;;0.10;;
47401;SDS011;33155;48.370;-3.750;2022-10-16T06:15:16;0.15;;;0.10;;
47401;SDS011;33155;48.370;-3.750;2022-10-16T06:17:41;0.30;;;0.28;;
47401;SDS011;33155;48.370;-3.750;2022-10-16T06:20:07;0.25;;;0.20;;
47401;SDS011;33155;48.370;-3.750;2022-10-16T06:22:33;0.20;;;0.10;;
47401;SDS011;33155;48.370;-3.750;2022-10-16T06:24:58;0.20;;;0.10;;
47401;SDS011;33155;48.370;-3.750;2022-10-16T06:27:24;0.20;;;0.10;;
47401;SDS011;33155;48.370;-3.750;2022-10-16T06:29:49;0.20;;;0.20;;
47401;SDS011;33155;48.370;-3.750;2022-10-16T06:32:15;0.10;;;0.10;;
47401;SDS011;33155;48.370;-3.750;2022-10-16T06:34:40;0.20;;;0.10;;
47401;SDS011;33155;48.370;-3.750;2022-10-16T06:37:06;0.08;;;0.08;;
47401;SDS011;33155;48.370;-3.750;2022-10-16T06:39:31;0.00;;;0.00;;
47401;SDS011;33155;48.370;-3.750;2022-10-16T06:41:57;0.00;;;0.00;;
47401;SDS011;33155;48.370;-3.750;2022-10-16T06:44:22;0.20;;;0.20;;
47401;SDS011;33155;48.370;-3.750;2022-10-16T06:46:48;0.17;;;0.17;;
47401;SDS011;33155;48.370;-3.750;2022-10-16T06:49:13;0.80;;;0.10;;
47401;SDS011;33155;48.370;-3.750;2022-10-16T06:51:46;0.10;;;0.10;;
47401;SDS011;33155;48.370;-3.750;2022-10-16T06:54:11;0.30;;;0.17;;
47401;SDS011;33155;48.370;-3.750;2022-10-16T06:56:37;0.63;;;0.20;;
47401;SDS011;33155;48.370;-3.750;2022-10-16T06:59:02;0.10;;;0.10;;
47401;SDS011;33155;48.370;-3.750;2022-10-16T07:01:28;0.10;;;0.10;;
47401;SDS011;33155;48.370;-3.750;2022-10-16T07:03:54;0.25;;;0.20;;
47401;SDS011;33155;48.370;-3.750;2022-10-16T07:06:20;0.20;;;0.20;;
47401;SDS011;33155;48.370;-3.750;2022-10-16T07:08:47;0.20;;;0.10;;
47401;SDS011;33155;48.370;-3.750;2022-10-16T07:11:14;0.10;;;0.05;;
47401;SDS011;33155;48.370;-3.750;2022-10-16T07:13:41;0.17;;;0.17;;
47401;SDS011;33155;48.370;-3.750;2022-10-16T07:16:10;0.03;;;0.03;;
47401;SDS011;33155;48.370;-3.750;2022-10-16T07:18:37;0.50;;;0.30;;
47401;SDS011;33155;48.370;-3.750;2022-10-16T07:21:27;0.10;;;0.10;;
47401;SDS011;33155;48.370;-3.750;2022-10-16T07:23:58;0.17;;;0.17;;
47401;SDS011;33155;48.370;-3.750;2022-10-16T07:26:25;0.10;;;0.10;;
47401;SDS011;33155;48.370;-3.750;2022-10-16T07:28:51;0.20;;;0.20;;
47401;SDS011;33155;48.370;-3.750;2022-10-16T07:31:18;0.20;;;0.20;;
47401;SDS011;33155;48.370;-3.750;2022-10-16T07:33:46;0.20;;;0.10;;
47401;SDS011;33155;48.370;-3.750;2022-10-16T07:36:14;0.13;;;0.10;;
47401;SDS011;33155;48.370;-3.750;2022-10-16T07:38:40;0.32;;;0.20;;
47401;SDS011;33155;48.370;-3.750;2022-10-16T07:41:08;0.60;;;0.25;;
47401;SDS011;33155;48.370;-3.750;2022-10-16T07:43:35;0.10;;;0.10;;
47401;SDS011;33155;48.370;-3.750;2022-10-16T07:46:01;0.47;;;0.20;;
47401;SDS011;33155;48.370;-3.750;2022-10-16T07:48:27;0.10;;;0.10;;
47401;SDS011;33155;48.370;-3.750;2022-10-16T07:50:57;0.20;;;0.20;;
47401;SDS011;33155;48.370;-3.750;2022-10-16T07:53:24;0.13;;;0.10;;
47401;SDS011;33155;48.370;-3.750;2022-10-16T07:55:49;0.20;;;0.20;;
47401;SDS011;33155;48.370;-3.750;2022-10-16T07:58:15;0.15;;;0.15;;
47401;SDS011;33155;48.370;-3.750;2022-10-16T08:00:40;0.10;;;0.10;;
47401;SDS011;33155;48.370;-3.750;2022-10-16T08:03:06;2.50;;;0.20;;
47401;SDS011;33155;48.370;-3.750;2022-10-16T08:05:31;0.50;;;0.22;;
47401;SDS011;33155;48.370;-3.750;2022-10-16T08:07:58;0.47;;;0.30;;
47401;SDS011;33155;48.370;-3.750;2022-10-16T08:10:25;0.30;;;0.20;;
47401;SDS011;33155;48.370;-3.750;2022-10-16T08:12:51;0.25;;;0.25;;
47401;SDS011;33155;48.370;-3.750;2022-10-16T08:15:18;0.10;;;0.10;;
47401;SDS011;33155;48.370;-3.750;2022-10-16T08:17:44;0.20;;;0.15;;
47401;SDS011;33155;48.370;-3.750;2022-10-16T08:20:10;0.22;;;0.20;;
47401;SDS011;33155;48.370;-3.750;2022-10-16T08:22:35;0.20;;;0.20;;
47401;SDS011;33155;48.370;-3.750;2022-10-16T08:25:01;0.30;;;0.28;;
47401;SDS011;33155;48.370;-3.750;2022-10-16T08:27:33;0.30;;;0.25;;
47401;SDS011;33155;48.370;-3.750;2022-10-16T08:29:58;0.20;;;0.20;;
47401;SDS011;33155;48.370;-3.750;2022-10-16T08:32:24;0.32;;;0.20;;
47401;SDS011;33155;48.370;-3.750;2022-10-16T08:34:49;0.25;;;0.20;;
47401;SDS011;33155;48.370;-3.750;2022-10-16T08:37:14;0.25;;;0.25;;
47401;SDS011;33155;48.370;-3.750;2022-10-16T08:39:40;0.20;;;0.20;;
47401;SDS011;33155;48.370;-3.750;2022-10-16T08:45:06;0.20;;;0.20;;
47401;SDS011;33155;48.370;-3.750;2022-10-16T08:50:22;0.28;;;0.28;;
47401;SDS011;33155;48.370;-3.750;2022-10-16T08:52:50;0.22;;;0.22;;
47401;SDS011;33155;48.370;-3.750;2022-10-16T08:58:13;0.30;;;0.28;;
47401;SDS011;33155;48.370;-3.750;2022-10-16T09:00:40;0.50;;;0.50;;
47401;SDS011;33155;48.370;-3.750;2022-10-16T09:03:30;0.73;;;0.50;;
47401;SDS011;33155;48.370;-3.750;2022-10-16T09:09:00;1.15;;;0.32;;
47401;SDS011;33155;48.370;-3.750;2022-10-16T09:11:41;0.68;;;0.40;;
47401;SDS011;33155;48.370;-3.750;2022-10-16T09:16:55;0.20;;;0.20;;
47401;SDS011;33155;48.370;-3.750;2022-10-16T09:20:13;0.35;;;0.30;;
47401;SDS011;33155;48.370;-3.750;2022-10-16T09:22:28;0.22;;;0.22;;
47401;SDS011;33155;48.370;-3.750;2022-10-16T09:24:59;0.50;;;0.30;;
47401;SDS011;33155;48.370;-3.750;2022-10-16T09:27:25;0.30;;;0.30;;
47401;SDS011;33155;48.370;-3.750;2022-10-16T09:29:51;0.95;;;0.38;;
47401;SDS011;33155;48.370;-3.750;2022-10-16T09:32:19;0.45;;;0.30;;
47401;SDS011;33155;48.370;-3.750;2022-10-16T09:34:53;0.70;;;0.52;;
47401;SDS011;33155;48.370;-3.750;2022-10-16T09:37:21;0.40;;;0.28;;
47401;SDS011;33155;48.370;-3.750;2022-10-16T09:39:50;0.20;;;0.20;;
47401;SDS011;33155;48.370;-3.750;2022-10-16T09:42:17;0.55;;;0.45;;
47401;SDS011;33155;48.370;-3.750;2022-10-16T09:44:51;0.30;;;0.30;;
47401;SDS011;33155;48.370;-3.750;2022-10-16T09:47:19;0.50;;;0.25;;
47401;SDS011;33155;48.370;-3.750;2022-10-16T09:49:50;0.35;;;0.30;;
47401;SDS011;33155;48.370;-3.750;2022-10-16T09:52:27;0.32;;;0.32;;
47401;SDS011;33155;48.370;-3.750;2022-10-16T09:55:00;0.50;;;0.32;;
47401;SDS011;33155;48.370;-3.750;2022-10-16T09:57:28;0.40;;;0.40;;
47401;SDS011;33155;48.370;-3.750;2022-10-16T09:59:56;2.20;;;0.30;;
47401;SDS011;33155;48.370;-3.750;2022-10-16T10:02:33;0.30;;;0.30;;
47401;SDS011;33155;48.370;-3.750;2022-10-16T10:05:01;0.28;;;0.28;;
47401;SDS011;33155;48.370;-3.750;2022-10-16T10:07:28;0.30;;;0.30;;
47401;SDS011;33155;48.370;-3.750;2022-10-16T10:09:59;0.32;;;0.30;;
47401;SDS011;33155;48.370;-3.750;2022-10-16T10:12:30;0.47;;;0.30;;
47401;SDS011;33155;48.370;-3.750;2022-10-16T10:15:20;0.40;;;0.35;;
47401;SDS011;33155;48.370;-3.750;2022-10-16T10:17:51;0.20;;;0.20;;
47401;SDS011;33155;48.370;-3.750;2022-10-16T10:22:51;0.35;;;0.22;;
47401;SDS011;33155;48.370;-3.750;2022-10-16T10:25:25;0.43;;;0.20;;
47401;SDS011;33155;48.370;-3.750;2022-10-16T10:30:29;0.25;;;0.25;;
47401;SDS011;33155;48.370;-3.750;2022-10-16T10:33:18;0.20;;;0.20;;
47401;SDS011;33155;48.370;-3.750;2022-10-16T10:36:05;0.40;;;0.40;;
47401;SDS011;33155;48.370;-3.750;2022-10-16T10:38:39;0.43;;;0.20;;
47401;SDS011;33155;48.370;-3.750;2022-10-16T10:52:19;0.50;;;0.50;;
47401;SDS011;33155;48.370;-3.750;2022-10-16T10:55:09;0.25;;;0.25;;
47401;SDS011;33155;48.370;-3.750;2022-10-16T11:08:41;0.50;;;0.40;;
47401;SDS011;33155;48.370;-3.750;2022-10-16T11:11:13;0.40;;;0.30;;
47401;SDS011;33155;48.370;-3.750;2022-10-16T11:16:29;1.15;;;0.73;;
47401;SDS011;33155;48.370;-3.750;2022-10-16T11:19:04;0.77;;;0.68;;
47401;SDS011;33155;48.370;-3.750;2022-10-16T11:22:13;1.33;;;0.75;;
47401;SDS011;33155;48.370;-3.750;2022-10-16T11:30:24;0.95;;;0.63;;
47401;SDS011;33155;48.370;-3.750;2022-10-16T11:32:54;1.23;;;0.60;;
47401;SDS011;33155;48.370;-3.750;2022-10-16T11:35:37;1.25;;;0.80;;
47401;SDS011;33155;48.370;-3.750;2022-10-16T11:38:03;2.42;;;0.65;;
47401;SDS011;33155;48.370;-3.750;2022-10-16T11:40:37;1.48;;;0.65;;
47401;SDS011;33155;48.370;-3.750;2022-10-16T11:43:17;1.85;;;0.70;;
47401;SDS011;33155;48.370;-3.750;2022-10-16T11:45:51;1.80;;;0.68;;
47401;SDS011;33155;48.370;-3.750;2022-10-16T11:48:21;1.73;;;0.60;;
47401;SDS011;33155;48.370;-3.750;2022-10-16T11:55:57;2.60;;;0.55;;
47401;SDS011;33155;48.370;-3.750;2022-10-16T11:58:33;1.13;;;0.70;;
47401;SDS011;33155;48.370;-3.750;2022-10-16T12:03:59;0.77;;;0.70;;
47401;SDS011;33155;48.370;-3.750;2022-10-16T12:11:53;1.90;;;0.70;;
47401;SDS011;33155;48.370;-3.750;2022-10-16T12:14:21;1.20;;;0.68;;
47401;SDS011;33155;48.370;-3.750;2022-10-16T12:17:00;2.20;;;0.80;;
47401;SDS011;33155;48.370;-3.750;2022-10-16T12:19:56;0.50;;;0.50;;
47401;SDS011;33155;48.370;-3.750;2022-10-16T12:22:29;1.38;;;0.63;;
47401;SDS011;33155;48.370;-3.750;2022-10-16T12:24:56;1.50;;;1.00;;
47401;SDS011;33155;48.370;-3.750;2022-10-16T12:27:29;0.50;;;0.40;;
47401;SDS011;33155;48.370;-3.750;2022-10-16T12:30:02;0.47;;;0.47;;
47401;SDS011;33155;48.370;-3.750;2022-10-16T12:32:37;2.58;;;0.85;;
47401;SDS011;33155;48.370;-3.750;2022-10-16T12:35:04;0.50;;;0.50;;
47401;SDS011;33155;48.370;-3.750;2022-10-16T12:37:32;1.10;;;0.50;;
47401;SDS011;33155;48.370;-3.750;2022-10-16T12:39:59;0.65;;;0.40;;
47401;SDS011;33155;48.370;-3.750;2022-10-16T12:44:55;0.52;;;0.50;;
47401;SDS011;33155;48.370;-3.750;2022-10-16T12:47:21;0.57;;;0.38;;
47401;SDS011;33155;48.370;-3.750;2022-10-16T12:50:28;0.40;;;0.40;;
47401;SDS011;33155;48.370;-3.750;2022-10-16T12:52:57;0.30;;;0.30;;
47401;SDS011;33155;48.370;-3.750;2022-10-16T12:55:23;0.70;;;0.43;;
47401;SDS011;33155;48.370;-3.750;2022-10-16T13:00:22;2.92;;;0.68;;
47401;SDS011;33155;48.370;-3.750;2022-10-16T13:11:22;0.50;;;0.40;;
47401;SDS011;33155;48.370;-3.750;2022-10-16T13:25:46;1.23;;;0.68;;
47401;SDS011;33155;48.370;-3.750;2022-10-16T13:28:13;0.93;;;0.40;;
47401;SDS011;33155;48.370;-3.750;2022-10-16T13:35:47;0.93;;;0.50;;
47401;SDS011;33155;48.370;-3.750;2022-10-16T13:38:15;1.98;;;1.00;;
47401;SDS011;33155;48.370;-3.750;2022-10-16T13:43:19;4.43;;;1.30;;
47401;SDS011;33155;48.370;-3.750;2022-10-16T13:45:58;2.88;;;0.80;;
47401;SDS011;33155;48.370;-3.750;2022-10-16T13:48:28;2.88;;;0.90;;
47401;SDS011;33155;48.370;-3.750;2022-10-16T13:53:47;1.92;;;0.88;;
47401;SDS011;33155;48.370;-3.750;2022-10-16T13:56:22;2.80;;;1.20;;
47401;SDS011;33155;48.370;-3.750;2022-10-16T13:58:59;3.85;;;1.17;;
47401;SDS011;33155;48.370;-3.750;2022-10-16T14:01:46;2.90;;;1.30;;
47401;SDS011;33155;48.370;-3.750;2022-10-16T14:04:11;2.08;;;1.15;;
47401;SDS011;33155;48.370;-3.750;2022-10-16T14:06:42;2.47;;;1.30;;
47401;SDS011;33155;48.370;-3.750;2022-10-16T14:09:14;2.15;;;1.20;;
47401;SDS011;33155;48.370;-3.750;2022-10-16T14:11:45;2.72;;;1.40;;
47401;SDS011;33155;48.370;-3.750;2022-10-16T14:14:16;1.67;;;1.00;;
47401;SDS011;33155;48.370;-3.750;2022-10-16T14:16:43;3.55;;;0.93;;
47401;SDS011;33155;48.370;-3.750;2022-10-16T14:19:19;1.98;;;1.23;;
47401;SDS011;33155;48.370;-3.750;2022-10-16T14:21:47;3.10;;;1.20;;
47401;SDS011;33155;48.370;-3.750;2022-10-16T14:24:21;2.92;;;1.10;;
47401;SDS011;33155;48.370;-3.750;2022-10-16T14:26:51;2.25;;;1.10;;
47401;SDS011;33155;48.370;-3.750;2022-10-16T14:29:20;1.02;;;0.95;;
47401;SDS011;33155;48.370;-3.750;2022-10-16T14:34:28;3.05;;;1.10;;
47401;SDS011;33155;48.370;-3.750;2022-10-16T14:37:06;3.83;;;1.00;;
47401;SDS011;33155;48.370;-3.750;2022-10-16T14:39:34;2.20;;;1.00;;
47401;SDS011;33155;48.370;-3.750;2022-10-16T14:42:00;1.42;;;1.00;;
47401;SDS011;33155;48.370;-3.750;2022-10-16T14:44:27;2.33;;;1.08;;
47401;SDS011;33155;48.370;-3.750;2022-10-16T14:46:55;2.65;;;1.20;;
47401;SDS011;33155;48.370;-3.750;2022-10-16T14:49:20;2.97;;;0.80;;
47401;SDS011;33155;48.370;-3.750;2022-10-16T14:51:47;1.95;;;1.20;;
47401;SDS011;33155;48.370;-3.750;2022-10-16T14:54:13;1.55;;;0.85;;
47401;SDS011;33155;48.370;-3.750;2022-10-16T14:56:48;1.63;;;0.90;;
47401;SDS011;33155;48.370;-3.750;2022-10-16T14:59:19;2.83;;;1.27;;
47401;SDS011;33155;48.370;-3.750;2022-10-16T15:02:02;1.50;;;0.90;;
47401;SDS011;33155;48.370;-3.750;2022-10-16T15:04:47;1.38;;;0.82;;
47401;SDS011;33155;48.370;-3.750;2022-10-16T15:07:13;2.00;;;1.08;;
47401;SDS011;33155;48.370;-3.750;2022-10-16T15:09:38;2.47;;;1.40;;
47401;SDS011;33155;48.370;-3.750;2022-10-16T15:12:04;4.88;;;2.70;;
47401;SDS011;33155;48.370;-3.750;2022-10-16T15:14:29;14.20;;;10.15;;
47401;SDS011;33155;48.370;-3.750;2022-10-16T15:16:55;9.18;;;5.32;;
47401;SDS011;33155;48.370;-3.750;2022-10-16T15:19:21;16.92;;;11.50;;
47401;SDS011;33155;48.370;-3.750;2022-10-16T15:21:46;9.90;;;7.18;;
47401;SDS011;33155;48.370;-3.750;2022-10-16T15:24:13;8.02;;;5.30;;
47401;SDS011;33155;48.370;-3.750;2022-10-16T15:26:38;6.78;;;4.57;;
47401;SDS011;33155;48.370;-3.750;2022-10-16T15:29:04;3.88;;;3.03;;
47401;SDS011;33155;48.370;-3.750;2022-10-16T15:31:30;4.35;;;3.13;;
47401;SDS011;33155;48.370;-3.750;2022-10-16T15:33:56;2.85;;;2.08;;
47401;SDS011;33155;48.370;-3.750;2022-10-16T15:36:31;5.00;;;1.90;;
47401;SDS011;33155;48.370;-3.750;2022-10-16T15:39:22;6.35;;;3.35;;
47401;SDS011;33155;48.370;-3.750;2022-10-16T15:41:47;2.35;;;1.42;;
47401;SDS011;33155;48.370;-3.750;2022-10-16T15:44:18;2.63;;;1.30;;
47401;SDS011;33155;48.370;-3.750;2022-10-16T15:46:44;1.83;;;1.00;;
47401;SDS011;33155;48.370;-3.750;2022-10-16T15:49:09;1.70;;;1.08;;
47401;SDS011;33155;48.370;-3.750;2022-10-16T15:51:37;1.55;;;0.82;;
47401;SDS011;33155;48.370;-3.750;2022-10-16T15:54:03;2.67;;;0.95;;
47401;SDS011;33155;48.370;-3.750;2022-10-16T15:56:29;2.65;;;0.75;;
47401;SDS011;33155;48.370;-3.750;2022-10-16T15:58:57;0.95;;;0.70;;
47401;SDS011;33155;48.370;-3.750;2022-10-16T16:01:24;1.65;;;0.63;;
47401;SDS011;33155;48.370;-3.750;2022-10-16T16:03:52;1.08;;;0.65;;
47401;SDS011;33155;48.370;-3.750;2022-10-16T16:06:18;1.42;;;0.60;;
47401;SDS011;33155;48.370;-3.750;2022-10-16T16:08:43;2.05;;;0.75;;
47401;SDS011;33155;48.370;-3.750;2022-10-16T16:11:10;0.75;;;0.70;;
47401;SDS011;33155;48.370;-3.750;2022-10-16T16:13:37;1.75;;;0.98;;
47401;SDS011;33155;48.370;-3.750;2022-10-16T16:16:10;1.33;;;0.82;;
47401;SDS011;33155;48.370;-3.750;2022-10-16T16:18:37;1.23;;;0.75;;
47401;SDS011;33155;48.370;-3.750;2022-10-16T16:21:03;3.17;;;1.17;;
47401;SDS011;33155;48.370;-3.750;2022-10-16T16:23:29;3.00;;;0.95;;
47401;SDS011;33155;48.370;-3.750;2022-10-16T16:26:11;2.53;;;1.00;;
47401;SDS011;33155;48.370;-3.750;2022-10-16T16:28:39;3.70;;;1.08;;
47401;SDS011;33155;48.370;-3.750;2022-10-16T16:31:05;2.78;;;0.98;;
47401;SDS011;33155;48.370;-3.750;2022-10-16T16:33:31;3.65;;;1.17;;
47401;SDS011;33155;48.370;-3.750;2022-10-16T16:35:57;1.45;;;0.82;;
47401;SDS011;33155;48.370;-3.750;2022-10-16T16:38:24;2.28;;;1.10;;
47401;SDS011;33155;48.370;-3.750;2022-10-16T16:40:50;4.53;;;1.42;;
47401;SDS011;33155;48.370;-3.750;2022-10-16T16:43:17;3.85;;;1.50;;
47401;SDS011;33155;48.370;-3.750;2022-10-16T16:45:42;2.30;;;1.10;;
47401;SDS011;33155;48.370;-3.750;2022-10-16T16:48:08;3.28;;;1.38;;
47401;SDS011;33155;48.370;-3.750;2022-10-16T16:50:36;4.80;;;1.33;;
47401;SDS011;33155;48.370;-3.750;2022-10-16T16:53:02;2.33;;;1.75;;
47401;SDS011;33155;48.370;-3.750;2022-10-16T16:55:28;2.53;;;1.25;;
47401;SDS011;33155;48.370;-3.750;2022-10-16T16:57:54;1.90;;;1.00;;
47401;SDS011;33155;48.370;-3.750;2022-10-16T17:00:19;4.45;;;1.35;;
47401;SDS011;33155;48.370;-3.750;2022-10-16T17:02:47;4.15;;;1.23;;
47401;SDS011;33155;48.370;-3.750;2022-10-16T17:05:14;3.60;;;1.67;;
47401;SDS011;33155;48.370;-3.750;2022-10-16T17:07:39;3.08;;;1.17;;
47401;SDS011;33155;48.370;-3.750;2022-10-16T17:10:06;1.98;;;1.20;;
47401;SDS011;33155;48.370;-3.750;2022-10-16T17:12:32;3.92;;;1.55;;
47401;SDS011;33155;48.370;-3.750;2022-10-16T17:14:57;5.25;;;1.13;;
47401;SDS011;33155;48.370;-3.750;2022-10-16T17:17:23;2.85;;;1.40;;
47401;SDS011;33155;48.370;-3.750;2022-10-16T17:19:51;5.03;;;1.85;;
47401;SDS011;33155;48.370;-3.750;2022-10-16T17:22:17;2.50;;;1.27;;
47401;SDS011;33155;48.370;-3.750;2022-10-16T17:24:43;6.43;;;1.83;;
47401;SDS011;33155;48.370;-3.750;2022-10-16T17:27:09;6.00;;;1.52;;
47401;SDS011;33155;48.370;-3.750;2022-10-16T17:29:36;3.67;;;1.45;;
47401;SDS011;33155;48.370;-3.750;2022-10-16T17:32:02;5.20;;;2.10;;
47401;SDS011;33155;48.370;-3.750;2022-10-16T17:34:28;3.55;;;1.42;;
47401;SDS011;33155;48.370;-3.750;2022-10-16T17:36:53;6.97;;;1.60;;
47401;SDS011;33155;48.370;-3.750;2022-10-16T17:39:19;4.45;;;1.40;;
47401;SDS011;33155;48.370;-3.750;2022-10-16T17:41:45;2.25;;;1.25;;
47401;SDS011;33155;48.370;-3.750;2022-10-16T17:44:11;5.60;;;1.67;;
47401;SDS011;33155;48.370;-3.750;2022-10-16T17:46:47;2.58;;;1.30;;
47401;SDS011;33155;48.370;-3.750;2022-10-16T17:49:15;4.20;;;1.30;;
47401;SDS011;33155;48.370;-3.750;2022-10-16T17:51:41;8.02;;;1.90;;
47401;SDS011;33155;48.370;-3.750;2022-10-16T17:54:07;5.10;;;1.45;;
47401;SDS011;33155;48.370;-3.750;2022-10-16T17:56:33;5.75;;;1.30;;
47401;SDS011;33155;48.370;-3.750;2022-10-16T17:58:59;3.67;;;1.45;;
47401;SDS011;33155;48.370;-3.750;2022-10-16T18:01:27;5.47;;;1.50;;
47401;SDS011;33155;48.370;-3.750;2022-10-16T18:04:00;5.28;;;1.30;;
47401;SDS011;33155;48.370;-3.750;2022-10-16T18:06:29;6.50;;;2.20;;
47401;SDS011;33155;48.370;-3.750;2022-10-16T18:08:56;4.85;;;1.55;;
47401;SDS011;33155;48.370;-3.750;2022-10-16T18:11:22;6.47;;;1.48;;
47401;SDS011;33155;48.370;-3.750;2022-10-16T18:13:50;5.18;;;1.70;;
47401;SDS011;33155;48.370;-3.750;2022-10-16T18:16:17;5.88;;;1.30;;
47401;SDS011;33155;48.370;-3.750;2022-10-16T18:18:42;6.30;;;2.28;;
47401;SDS011;33155;48.370;-3.750;2022-10-16T18:21:12;6.18;;;2.65;;
47401;SDS011;33155;48.370;-3.750;2022-10-16T18:23:39;10.75;;;3.00;;
47401;SDS011;33155;48.370;-3.750;2022-10-16T18:26:05;6.68;;;3.28;;
47401;SDS011;33155;48.370;-3.750;2022-10-16T18:28:31;6.15;;;1.80;;
47401;SDS011;33155;48.370;-3.750;2022-10-16T18:30:58;4.80;;;1.65;;
47401;SDS011;33155;48.370;-3.750;2022-10-16T18:33:26;7.45;;;2.25;;
47401;SDS011;33155;48.370;-3.750;2022-10-16T18:35:52;4.82;;;1.83;;
47401;SDS011;33155;48.370;-3.750;2022-10-16T18:38:18;6.22;;;2.45;;
47401;SDS011;33155;48.370;-3.750;2022-10-16T18:40:43;7.97;;;2.20;;
47401;SDS011;33155;48.370;-3.750;2022-10-16T18:43:09;4.75;;;1.70;;
47401;SDS011;33155;48.370;-3.750;2022-10-16T18:45:35;5.35;;;1.98;;
47401;SDS011;33155;48.370;-3.750;2022-10-16T18:48:02;4.45;;;1.70;;
47401;SDS011;33155;48.370;-3.750;2022-10-16T18:50:27;5.75;;;1.92;;
47401;SDS011;33155;48.370;-3.750;2022-10-16T18:52:53;9.55;;;2.70;;
47401;SDS011;33155;48.370;-3.750;2022-10-16T18:55:18;4.20;;;1.75;;
47401;SDS011;33155;48.370;-3.750;2022-10-16T18:57:45;7.07;;;2.38;;
47401;SDS011;33155;48.370;-3.750;2022-10-16T19:00:11;5.15;;;1.65;;
47401;SDS011;33155;48.370;-3.750;2022-10-16T19:02:36;8.75;;;1.77;;
47401;SDS011;33155;48.370;-3.750;2022-10-16T19:05:02;5.10;;;2.47;;
47401;SDS011;33155;48.370;-3.750;2022-10-16T19:07:28;5.50;;;1.63;;
47401;SDS011;33155;48.370;-3.750;2022-10-16T19:09:53;8.18;;;1.83;;
47401;SDS011;33155;48.370;-3.750;2022-10-16T19:12:19;4.95;;;1.90;;
47401;SDS011;33155;48.370;-3.750;2022-10-16T19:14:46;5.47;;;1.88;;
47401;SDS011;33155;48.370;-3.750;2022-10-16T19:17:12;6.75;;;1.98;;
47401;SDS011;33155;48.370;-3.750;2022-10-16T19:19:38;5.97;;;1.70;;
47401;SDS011;33155;48.370;-3.750;2022-10-16T19:22:03;3.38;;;1.55;;
47401;SDS011;33155;48.370;-3.750;2022-10-16T19:24:42;7.05;;;1.98;;
47401;SDS011;33155;48.370;-3.750;2022-10-16T19:27:09;4.85;;;1.50;;
47401;SDS011;33155;48.370;-3.750;2022-10-16T19:29:34;7.47;;;2.05;;
47401;SDS011;33155;48.370;-3.750;2022-10-16T19:32:00;9.80;;;2.03;;
47401;SDS011;33155;48.370;-3.750;2022-10-16T19:34:28;7.55;;;2.17;;
47401;SDS011;33155;48.370;-3.750;2022-10-16T19:36:54;7.43;;;2.67;;
47401;SDS011;33155;48.370;-3.750;2022-10-16T19:39:20;10.10;;;2.08;;
47401;SDS011;33155;48.370;-3.750;2022-10-16T19:41:46;4.90;;;1.40;;
47401;SDS011;33155;48.370;-3.750;2022-10-16T19:44:12;3.97;;;1.23;;
47401;SDS011;33155;48.370;-3.750;2022-10-16T19:46:39;5.70;;;1.60;;
47401;SDS011;33155;48.370;-3.750;2022-10-16T19:49:07;5.72;;;2.15;;
47401;SDS011;33155;48.370;-3.750;2022-10-16T19:51:35;7.90;;;2.33;;
47401;SDS011;33155;48.370;-3.750;2022-10-16T19:54:03;11.68;;;2.38;;
47401;SDS011;33155;48.370;-3.750;2022-10-16T19:56:30;8.15;;;1.73;;
47401;SDS011;33155;48.370;-3.750;2022-10-16T19:58:57;4.82;;;1.42;;
